Time,TemperatureF,DewpointF,PressureIn,WindDirection,WindDirectionDegrees,WindSpeedMPH,WindSpeedGustMPH,Humidity,HourlyPrecipIn,Conditions,Clouds,dailyrainin,SoftwareType,DateUTC
2013-05-03 00:02:00,71.8,14.4,29.98,SW,236,0.0,1.0,11,0.00,,,0.00,Wunderground v.1.15,2013-05-03 07:02:00,
2013-05-03 00:07:00,70.3,24.8,29.98,SW,229,1.0,3.0,18,0.00,,,0.00,Wunderground v.1.15,2013-05-03 07:07:00,
2013-05-03 00:12:00,69.1,21.0,29.98,WSW,239,1.0,1.0,16,0.00,,,0.00,Wunderground v.1.15,2013-05-03 07:12:00,
2013-05-03 00:17:00,69.5,18.2,29.98,WSW,256,0.0,1.0,14,0.00,,,0.00,Wunderground v.1.15,2013-05-03 07:17:00,
2013-05-03 00:22:00,69.9,20.1,29.98,WSW,242,0.0,1.0,15,0.00,,,0.00,Wunderground v.1.15,2013-05-03 07:22:00,
2013-05-03 00:27:00,69.6,22.8,29.98,SSE,148,0.0,1.0,17,0.00,,,0.00,Wunderground v.1.15,2013-05-03 07:27:00,
2013-05-03 00:32:00,68.9,22.2,29.98,SSE,148,0.0,0.0,17,0.00,,,0.00,Wunderground v.1.15,2013-05-03 07:32:00,
2013-05-03 00:38:00,68.1,23.0,29.98,SE,145,0.0,0.0,18,0.00,,,0.00,Wunderground v.1.15,2013-05-03 07:38:00,
2013-05-03 00:43:00,67.7,22.6,29.98,SE,130,0.0,0.0,18,0.00,,,0.00,Wunderground v.1.15,2013-05-03 07:43:00,
2013-05-03 00:48:00,67.3,22.3,29.98,ESE,121,0.0,0.0,18,0.00,,,0.00,Wunderground v.1.15,2013-05-03 07:48:00,
2013-05-03 00:53:00,67.2,19.4,29.98,ESE,121,0.0,0.0,16,0.00,,,0.00,Wunderground v.1.15,2013-05-03 07:53:00,
2013-05-03 00:58:00,66.7,21.8,29.98,ESE,121,0.0,0.0,18,0.00,,,0.00,Wunderground v.1.15,2013-05-03 07:58:00,
2013-05-03 01:04:00,65.8,19.7,29.97,ESE,121,0.0,0.0,17,0.00,,,0.00,Wunderground v.1.15,2013-05-03 08:04:00,
2013-05-03 01:09:00,65.8,18.3,29.98,ESE,121,0.0,0.0,16,0.00,,,0.00,Wunderground v.1.15,2013-05-03 08:09:00,
2013-05-03 01:14:00,65.7,19.6,29.98,ESE,121,0.0,0.0,17,0.00,,,0.00,Wunderground v.1.15,2013-05-03 08:14:00,
2013-05-03 01:19:00,65.6,19.6,29.98,ESE,121,0.0,0.0,17,0.00,,,0.00,Wunderground v.1.15,2013-05-03 08:19:00,
2013-05-03 01:24:00,65.4,19.4,29.97,ESE,121,0.0,0.0,17,0.00,,,0.00,Wunderground v.1.15,2013-05-03 08:24:00,
2013-05-03 01:29:00,64.9,19.0,29.98,ESE,122,0.0,0.0,17,0.00,,,0.00,Wunderground v.1.15,2013-05-03 08:29:00,
2013-05-03 01:34:00,64.2,19.8,29.98,ESE,121,0.0,0.0,18,0.00,,,0.00,Wunderground v.1.15,2013-05-03 08:34:00,
2013-05-03 01:40:00,63.8,24.2,29.98,ESE,122,0.0,0.0,22,0.00,,,0.00,Wunderground v.1.15,2013-05-03 08:40:00,
2013-05-03 01:45:00,63.5,26.0,29.97,ESE,123,0.0,0.0,24,0.00,,,0.00,Wunderground v.1.15,2013-05-03 08:45:00,
2013-05-03 01:50:00,63.2,25.8,29.97,WNW,291,0.0,0.0,24,0.00,,,0.00,Wunderground v.1.15,2013-05-03 08:50:00,
2013-05-03 01:55:00,62.8,28.3,29.97,NW,325,2.0,2.0,27,0.00,,,0.00,Wunderground v.1.15,2013-05-03 08:55:00,
2013-05-03 02:00:00,62.3,28.7,29.96,North,1,2.0,2.0,28,0.00,,,0.00,Wunderground v.1.15,2013-05-03 09:00:00,
2013-05-03 02:05:00,61.9,29.3,29.96,NNE,26,0.0,2.0,29,0.00,,,0.00,Wunderground v.1.15,2013-05-03 09:05:00,
2013-05-03 02:10:00,61.5,28.9,29.96,NNE,26,0.0,1.0,29,0.00,,,0.00,Wunderground v.1.15,2013-05-03 09:10:00,
2013-05-03 02:15:00,61.4,27.1,29.96,ESE,121,0.0,1.0,27,0.00,,,0.00,Wunderground v.1.15,2013-05-03 09:15:00,
2013-05-03 02:20:00,61.2,26.9,29.96,SE,134,0.0,0.0,27,0.00,,,0.00,Wunderground v.1.15,2013-05-03 09:20:00,
2013-05-03 02:25:00,61.4,25.2,29.96,SE,134,0.0,1.0,25,0.00,,,0.00,Wunderground v.1.15,2013-05-03 09:25:00,
2013-05-03 02:30:00,61.7,25.5,29.96,SE,134,0.0,0.0,25,0.00,,,0.00,Wunderground v.1.15,2013-05-03 09:30:00,
2013-05-03 02:35:00,62.1,22.8,29.96,SE,134,0.0,0.0,22,0.00,,,0.00,Wunderground v.1.15,2013-05-03 09:35:00,
2013-05-03 02:40:00,62.2,24.9,29.96,SE,134,0.0,0.0,24,0.00,,,0.00,Wunderground v.1.15,2013-05-03 09:40:00,
2013-05-03 02:45:00,62.7,25.3,29.96,NNE,23,0.0,0.0,24,0.00,,,0.00,Wunderground v.1.15,2013-05-03 09:45:00,
2013-05-03 02:50:00,62.5,23.1,29.96,ENE,70,0.0,0.0,22,0.00,,,0.00,Wunderground v.1.15,2013-05-03 09:50:00,
2013-05-03 02:55:00,61.8,22.5,29.96,NNE,18,0.0,1.0,22,0.00,,,0.00,Wunderground v.1.15,2013-05-03 09:55:00,
2013-05-03 03:00:00,61.4,21.1,29.96,NNW,342,0.0,1.0,21,0.00,,,0.00,Wunderground v.1.15,2013-05-03 10:00:00,
2013-05-03 03:05:00,61.2,22.0,29.96,NNW,347,2.0,2.0,22,0.00,,,0.00,Wunderground v.1.15,2013-05-03 10:05:00,
2013-05-03 03:10:00,61.1,19.7,29.96,North,354,3.0,3.0,20,0.00,,,0.00,Wunderground v.1.15,2013-05-03 10:10:00,
2013-05-03 03:15:00,60.8,15.6,29.95,North,3,2.0,5.0,17,0.00,,,0.00,Wunderground v.1.15,2013-05-03 10:15:00,
2013-05-03 03:20:00,62.1,13.8,29.95,NW,311,1.0,2.0,15,0.00,,,0.00,Wunderground v.1.15,2013-05-03 10:20:00,
2013-05-03 03:25:00,65.9,11.8,29.96,ENE,70,2.0,6.0,12,0.00,,,0.00,Wunderground v.1.15,2013-05-03 10:25:00,
2013-05-03 03:30:00,68.3,11.7,29.96,North,8,2.0,2.0,11,0.00,,,0.00,Wunderground v.1.15,2013-05-03 10:30:00,
2013-05-03 03:35:00,69.5,10.5,29.96,NNE,25,4.0,6.0,10,0.00,,,0.00,Wunderground v.1.15,2013-05-03 10:35:00,
2013-05-03 03:40:00,69.7,10.6,29.96,NNW,342,1.0,3.0,10,0.00,,,0.00,Wunderground v.1.15,2013-05-03 10:40:00,
2013-05-03 03:45:00,69.7,10.6,29.96,NNW,341,0.0,3.0,10,0.00,,,0.00,Wunderground v.1.15,2013-05-03 10:45:00,
2013-05-03 03:50:00,69.4,10.4,29.96,North,3,0.0,1.0,10,0.00,,,0.00,Wunderground v.1.15,2013-05-03 10:50:00,
2013-05-03 03:55:00,68.9,10.0,29.95,NNE,23,1.0,2.0,10,0.00,,,0.00,Wunderground v.1.15,2013-05-03 10:55:00,
2013-05-03 04:00:00,68.6,9.8,29.95,NNE,23,2.0,4.0,10,0.00,,,0.00,Wunderground v.1.15,2013-05-03 11:00:00,
2013-05-03 04:05:00,68.2,9.5,29.96,NNE,30,1.0,4.0,10,0.00,,,0.00,Wunderground v.1.15,2013-05-03 11:05:00,
2013-05-03 04:11:00,67.9,11.4,29.96,North,354,0.0,2.0,11,0.00,,,0.00,Wunderground v.1.15,2013-05-03 11:11:00,
2013-05-03 04:16:00,67.5,11.1,29.96,North,8,0.0,2.0,11,0.00,,,0.00,Wunderground v.1.15,2013-05-03 11:16:00,
2013-05-03 04:21:00,67.0,10.7,29.96,North,8,0.0,1.0,11,0.00,,,0.00,Wunderground v.1.15,2013-05-03 11:21:00,
2013-05-03 04:26:00,66.7,10.4,29.96,NNE,15,0.0,1.0,11,0.00,,,0.00,Wunderground v.1.15,2013-05-03 11:26:00,
2013-05-03 04:31:00,66.4,10.2,29.96,North,4,0.0,0.0,11,0.00,,,0.00,Wunderground v.1.15,2013-05-03 11:31:00,
2013-05-03 04:36:00,66.1,10.0,29.96,NE,34,0.0,1.0,11,0.00,,,0.00,Wunderground v.1.15,2013-05-03 11:36:00,
2013-05-03 04:41:00,65.9,9.8,29.96,North,359,0.0,0.0,11,0.00,,,0.00,Wunderground v.1.15,2013-05-03 11:41:00,
2013-05-03 04:46:00,65.6,9.6,29.96,NNW,340,0.0,1.0,11,0.00,,,0.00,Wunderground v.1.15,2013-05-03 11:46:00,
2013-05-03 04:51:00,65.3,9.4,29.95,North,10,0.0,1.0,11,0.00,,,0.00,Wunderground v.1.15,2013-05-03 11:51:00,
2013-05-03 04:56:00,65.3,9.4,29.95,North,9,2.0,2.0,11,0.00,,,0.00,Wunderground v.1.15,2013-05-03 11:56:00,
2013-05-03 05:01:00,65.3,9.4,29.95,NNE,30,1.0,2.0,11,0.00,,,0.00,Wunderground v.1.15,2013-05-03 12:01:00,
2013-05-03 05:06:00,65.0,11.1,29.95,North,8,0.0,2.0,12,0.00,,,0.00,Wunderground v.1.15,2013-05-03 12:06:00,
2013-05-03 05:11:00,64.6,10.8,29.95,North,360,0.0,0.0,12,0.00,,,0.00,Wunderground v.1.15,2013-05-03 12:11:00,
2013-05-03 05:16:00,64.0,10.3,29.95,North,357,0.0,1.0,12,0.00,,,0.00,Wunderground v.1.15,2013-05-03 12:16:00,
2013-05-03 05:21:00,63.6,10.0,29.95,North,11,1.0,2.0,12,0.00,,,0.00,Wunderground v.1.15,2013-05-03 12:21:00,
2013-05-03 05:26:00,63.2,11.5,29.95,NNW,339,3.0,3.0,13,0.00,,,0.00,Wunderground v.1.15,2013-05-03 12:26:00,
2013-05-03 05:31:00,62.4,12.5,29.95,North,3,1.0,2.0,14,0.00,,,0.00,Wunderground v.1.15,2013-05-03 12:31:00,
2013-05-03 05:36:00,61.8,12.0,29.95,NNW,336,2.0,3.0,14,0.00,,,0.00,Wunderground v.1.15,2013-05-03 12:36:00,
2013-05-03 05:41:00,61.3,11.6,29.95,North,360,0.0,2.0,14,0.00,,,0.00,Wunderground v.1.15,2013-05-03 12:41:00,
2013-05-03 05:46:00,61.1,11.5,29.95,NNW,348,3.0,3.0,14,0.00,,,0.00,Wunderground v.1.15,2013-05-03 12:46:00,
2013-05-03 05:51:00,61.7,10.3,29.95,NNE,17,4.0,6.0,13,0.00,,,0.00,Wunderground v.1.15,2013-05-03 12:51:00,
2013-05-03 05:56:00,62.3,9.0,29.95,NE,43,2.0,7.0,12,0.00,,,0.00,Wunderground v.1.15,2013-05-03 12:56:00,
2013-05-03 06:01:00,63.9,6.2,29.95,NNE,18,5.0,8.0,10,0.00,,,0.00,Wunderground v.1.15,2013-05-03 13:01:00,
2013-05-03 06:06:00,65.3,7.2,29.96,North,349,4.0,8.0,10,0.00,,,0.00,Wunderground v.1.15,2013-05-03 13:06:00,
2013-05-03 06:11:00,65.7,7.6,29.95,NNW,333,4.0,7.0,10,0.00,,,0.00,Wunderground v.1.15,2013-05-03 13:11:00,
2013-05-03 06:16:00,65.2,9.3,29.96,NE,44,2.0,7.0,11,0.00,,,0.00,Wunderground v.1.15,2013-05-03 13:16:00,
2013-05-03 06:21:00,64.6,10.8,29.96,NNW,337,0.0,3.0,12,0.00,,,0.00,Wunderground v.1.15,2013-05-03 13:21:00,
2013-05-03 06:26:00,64.6,10.8,29.96,NNE,30,2.0,3.0,12,0.00,,,0.00,Wunderground v.1.15,2013-05-03 13:26:00,
2013-05-03 06:31:00,65.0,11.1,29.97,NW,313,1.0,2.0,12,0.00,,,0.00,Wunderground v.1.15,2013-05-03 13:31:00,
2013-05-03 06:36:00,65.0,12.9,29.96,NW,318,1.0,4.0,13,0.00,,,0.00,Wunderground v.1.15,2013-05-03 13:36:00,
2013-05-03 06:41:00,65.0,12.9,29.97,NNW,341,5.0,8.0,13,0.00,,,0.00,Wunderground v.1.15,2013-05-03 13:41:00,
2013-05-03 06:46:00,64.7,14.3,29.97,NW,313,2.0,8.0,14,0.00,,,0.00,Wunderground v.1.15,2013-05-03 13:46:00,
2013-05-03 06:52:00,65.1,14.7,29.97,NNE,31,2.0,4.0,14,0.00,,,0.00,Wunderground v.1.15,2013-05-03 13:52:00,
2013-05-03 06:57:00,65.6,13.4,29.97,ESE,118,3.0,9.0,13,0.00,,,0.00,Wunderground v.1.15,2013-05-03 13:57:00,
2013-05-03 07:02:00,66.2,15.5,29.97,North,360,3.0,3.0,14,0.00,,,0.00,Wunderground v.1.15,2013-05-03 14:02:00,
2013-05-03 07:07:00,66.8,16.0,29.97,NE,34,5.0,8.0,14,0.00,,,0.00,Wunderground v.1.15,2013-05-03 14:07:00,
2013-05-03 07:12:00,67.6,16.6,29.97,North,1,0.0,5.0,14,0.00,,,0.00,Wunderground v.1.15,2013-05-03 14:12:00,
2013-05-03 07:17:00,68.4,17.3,29.97,NNW,332,1.0,5.0,14,0.00,,,0.00,Wunderground v.1.15,2013-05-03 14:17:00,
2013-05-03 07:22:00,69.0,17.8,29.97,North,358,4.0,4.0,14,0.00,,,0.00,Wunderground v.1.15,2013-05-03 14:22:00,
2013-05-03 07:27:00,69.4,18.1,29.97,NE,37,2.0,6.0,14,0.00,,,0.00,Wunderground v.1.15,2013-05-03 14:27:00,
2013-05-03 07:32:00,69.7,16.6,29.97,North,5,2.0,8.0,13,0.00,,,0.00,Wunderground v.1.15,2013-05-03 14:32:00,
2013-05-03 07:37:00,70.1,18.6,29.97,NE,48,1.0,8.0,14,0.00,,,0.00,Wunderground v.1.15,2013-05-03 14:37:00,
2013-05-03 07:42:00,70.6,19.0,29.97,NNE,15,4.0,4.0,14,0.00,,,0.00,Wunderground v.1.15,2013-05-03 14:42:00,
2013-05-03 07:47:00,71.2,17.8,29.97,NNE,25,2.0,5.0,13,0.00,,,0.00,Wunderground v.1.15,2013-05-03 14:47:00,
2013-05-03 07:52:00,71.6,18.1,29.97,NNE,13,5.0,9.0,13,0.00,,,0.00,Wunderground v.1.15,2013-05-03 14:52:00,
2013-05-03 07:57:00,72.0,16.6,29.97,NNE,16,1.0,9.0,12,0.00,,,0.00,Wunderground v.1.15,2013-05-03 14:57:00,
2013-05-03 08:02:00,72.6,18.9,29.97,NE,34,5.0,9.0,13,0.00,,,0.00,Wunderground v.1.15,2013-05-03 15:02:00,
2013-05-03 08:07:00,73.1,19.3,29.97,North,8,7.0,9.0,13,0.00,,,0.00,Wunderground v.1.15,2013-05-03 15:07:00,
2013-05-03 08:12:00,73.6,19.7,29.97,North,1,4.0,5.0,13,0.00,,,0.00,Wunderground v.1.15,2013-05-03 15:12:00,
2013-05-03 08:17:00,73.9,19.9,29.97,NNE,30,3.0,8.0,13,0.00,,,0.00,Wunderground v.1.15,2013-05-03 15:17:00,
2013-05-03 08:22:00,74.4,18.4,29.97,ENE,62,5.0,10.0,12,0.00,,,0.00,Wunderground v.1.15,2013-05-03 15:22:00,
2013-05-03 08:27:00,74.7,18.7,29.96,East,91,3.0,11.0,12,0.00,,,0.00,Wunderground v.1.15,2013-05-03 15:27:00,
2013-05-03 08:32:00,75.1,19.0,29.96,NE,44,2.0,7.0,12,0.00,,,0.00,Wunderground v.1.15,2013-05-03 15:32:00,
2013-05-03 08:37:00,75.5,22.9,29.96,NNW,331,3.0,9.0,14,0.00,,,0.00,Wunderground v.1.15,2013-05-03 15:37:00,
2013-05-03 08:42:00,75.9,24.9,29.96,NNW,346,6.0,12.0,15,0.00,,,0.00,Wunderground v.1.15,2013-05-03 15:42:00,
2013-05-03 08:47:00,76.5,25.4,29.96,ESE,108,10.0,12.0,15,0.00,,,0.00,Wunderground v.1.15,2013-05-03 15:47:00,
2013-05-03 08:52:00,77.1,24.2,29.96,SW,221,2.0,7.0,14,0.00,,,0.00,Wunderground v.1.15,2013-05-03 15:52:00,
2013-05-03 08:57:00,77.6,24.6,29.96,NW,308,2.0,12.0,14,0.00,,,0.00,Wunderground v.1.15,2013-05-03 15:57:00,
2013-05-03 09:02:00,78.1,19.3,29.96,NNW,330,6.0,11.0,11,0.00,,,0.00,Wunderground v.1.15,2013-05-03 16:02:00,
2013-05-03 09:07:00,78.5,14.9,29.96,SSE,149,1.0,13.0,9,0.00,,,0.00,Wunderground v.1.15,2013-05-03 16:07:00,
2013-05-03 09:12:00,79.1,20.0,29.96,NNE,23,8.0,12.0,11,0.00,,,0.00,Wunderground v.1.15,2013-05-03 16:12:00,
2013-05-03 09:17:00,79.7,18.3,29.95,WNW,296,1.0,12.0,10,0.00,,,0.00,Wunderground v.1.15,2013-05-03 16:17:00,
2013-05-03 09:22:00,80.2,13.5,29.95,NNE,20,6.0,10.0,8,0.00,,,0.00,Wunderground v.1.15,2013-05-03 16:22:00,
2013-05-03 09:27:00,80.6,16.5,29.95,ESE,110,6.0,12.0,9,0.00,,,0.00,Wunderground v.1.15,2013-05-03 16:27:00,
2013-05-03 09:32:00,81.1,14.2,29.95,NE,42,4.0,9.0,8,0.00,,,0.00,Wunderground v.1.15,2013-05-03 16:32:00,
2013-05-03 09:37:00,81.5,14.5,29.95,North,5,9.0,14.0,8,0.00,,,0.00,Wunderground v.1.15,2013-05-03 16:37:00,
2013-05-03 09:42:00,81.9,14.8,29.95,NNE,14,9.0,16.0,8,0.00,,,0.00,Wunderground v.1.15,2013-05-03 16:42:00,
2013-05-03 09:47:00,82.0,11.8,29.95,NNW,330,10.0,16.0,7,0.00,,,0.00,Wunderground v.1.15,2013-05-03 16:47:00,
2013-05-03 09:52:00,82.5,17.9,29.95,NNW,345,12.0,14.0,9,0.00,,,0.00,Wunderground v.1.15,2013-05-03 16:52:00,
2013-05-03 09:57:00,82.5,15.2,29.95,NNE,13,9.0,16.0,8,0.00,,,0.00,Wunderground v.1.15,2013-05-03 16:57:00,
2013-05-03 10:02:00,82.7,12.3,29.95,NNW,345,9.0,15.0,7,0.00,,,0.00,Wunderground v.1.15,2013-05-03 17:02:00,
2013-05-03 10:07:00,82.8,15.4,29.94,NNW,348,9.0,15.0,8,0.00,,,0.00,Wunderground v.1.15,2013-05-03 17:07:00,
2013-05-03 10:13:00,83.3,15.8,29.94,NNW,335,11.0,15.0,8,0.00,,,0.00,Wunderground v.1.15,2013-05-03 17:13:00,
2013-05-03 10:18:00,83.3,15.8,29.94,NW,323,8.0,17.0,8,0.00,,,0.00,Wunderground v.1.15,2013-05-03 17:18:00,
2013-05-03 10:23:00,83.7,16.1,29.94,NW,322,5.0,13.0,8,0.00,,,0.00,Wunderground v.1.15,2013-05-03 17:23:00,
2013-05-03 10:28:00,83.7,13.0,29.94,NNW,333,11.0,16.0,7,0.00,,,0.00,Wunderground v.1.15,2013-05-03 17:28:00,
2013-05-03 10:32:00,84.3,13.5,29.94,NW,309,15.0,16.0,7,0.00,,,0.00,Wunderground v.1.15,2013-05-03 17:32:00,
2013-05-03 10:37:00,84.6,16.8,29.94,NNW,330,9.0,16.0,8,0.00,,,0.00,Wunderground v.1.15,2013-05-03 17:37:00,
2013-05-03 10:43:00,84.4,13.6,29.94,NW,315,9.0,15.0,7,0.00,,,0.00,Wunderground v.1.15,2013-05-03 17:43:00,
2013-05-03 10:48:00,84.7,16.8,29.94,North,11,10.0,15.0,8,0.00,,,0.00,Wunderground v.1.15,2013-05-03 17:48:00,
2013-05-03 10:53:00,85.3,14.2,29.93,North,360,10.0,17.0,7,0.00,,,0.00,Wunderground v.1.15,2013-05-03 17:53:00,
2013-05-03 10:58:00,85.2,14.1,29.93,NW,323,10.0,17.0,7,0.00,,,0.00,Wunderground v.1.15,2013-05-03 17:58:00,
2013-05-03 11:03:00,85.5,17.4,29.93,North,10,8.0,13.0,8,0.00,,,0.00,Wunderground v.1.15,2013-05-03 18:03:00,
2013-05-03 11:08:00,85.7,14.5,29.93,NW,326,11.0,15.0,7,0.00,,,0.00,Wunderground v.1.15,2013-05-03 18:08:00,
2013-05-03 11:13:00,86.1,14.8,29.93,West,278,6.0,15.0,7,0.00,,,0.00,Wunderground v.1.15,2013-05-03 18:13:00,
2013-05-03 11:18:00,86.6,15.2,29.93,NNW,347,9.0,16.0,7,0.00,,,0.00,Wunderground v.1.15,2013-05-03 18:18:00,
2013-05-03 11:23:00,86.8,15.3,29.93,NNW,339,11.0,11.0,7,0.00,,,0.00,Wunderground v.1.15,2013-05-03 18:23:00,
2013-05-03 11:28:00,86.9,18.5,29.92,NW,310,3.0,12.0,8,0.00,,,0.00,Wunderground v.1.15,2013-05-03 18:28:00,
2013-05-03 11:33:00,87.7,16.0,29.92,NW,305,6.0,11.0,7,0.00,,,0.00,Wunderground v.1.15,2013-05-03 18:33:00,
2013-05-03 11:38:00,88.3,19.5,29.91,NNE,23,10.0,18.0,8,0.00,,,0.00,Wunderground v.1.15,2013-05-03 18:38:00,
2013-05-03 11:43:00,88.1,16.3,29.91,NNW,347,6.0,14.0,7,0.00,,,0.00,Wunderground v.1.15,2013-05-03 18:43:00,
2013-05-03 11:48:00,87.8,19.1,29.91,NW,326,8.0,19.0,8,0.00,,,0.00,Wunderground v.1.15,2013-05-03 18:48:00,
2013-05-03 11:53:00,87.7,19.1,29.91,NNW,340,10.0,14.0,8,0.00,,,0.00,Wunderground v.1.15,2013-05-03 18:53:00,
2013-05-03 11:58:00,88.7,19.8,29.90,NNW,342,9.0,14.0,8,0.00,,,0.00,Wunderground v.1.15,2013-05-03 18:58:00,
2013-05-03 12:03:00,89.5,17.3,29.90,NW,319,13.0,15.0,7,0.00,,,0.00,Wunderground v.1.15,2013-05-03 19:03:00,
2013-05-03 12:08:00,89.2,17.1,29.90,NNW,340,10.0,17.0,7,0.00,,,0.00,Wunderground v.1.15,2013-05-03 19:08:00,
2013-05-03 12:13:00,90.3,14.3,29.89,NE,36,4.0,17.0,6,0.00,,,0.00,Wunderground v.1.15,2013-05-03 19:13:00,
2013-05-03 12:18:00,90.8,14.7,29.89,NNW,330,13.0,17.0,6,0.00,,,0.00,Wunderground v.1.15,2013-05-03 19:18:00,
2013-05-03 12:23:00,90.4,17.9,29.89,NNE,12,9.0,19.0,7,0.00,,,0.00,Wunderground v.1.15,2013-05-03 19:23:00,
2013-05-03 12:28:00,91.1,14.9,29.89,ENE,68,0.0,19.0,6,0.00,,,0.00,Wunderground v.1.15,2013-05-03 19:28:00,
2013-05-03 12:33:00,92.1,15.6,29.88,East,91,1.0,6.0,6,0.00,,,0.00,Wunderground v.1.15,2013-05-03 19:33:00,
2013-05-03 12:38:00,91.6,15.2,29.88,NNE,27,8.0,9.0,6,0.00,,,0.00,Wunderground v.1.15,2013-05-03 19:38:00,
2013-05-03 12:43:00,91.5,11.0,29.88,WNW,287,5.0,15.0,5,0.00,,,0.00,Wunderground v.1.15,2013-05-03 19:43:00,
2013-05-03 12:48:00,91.6,15.2,29.88,NNE,26,5.0,15.0,6,0.00,,,0.00,Wunderground v.1.15,2013-05-03 19:48:00,
2013-05-03 12:53:00,91.4,15.1,29.88,North,360,7.0,8.0,6,0.00,,,0.00,Wunderground v.1.15,2013-05-03 19:53:00,
2013-05-03 12:58:00,91.4,15.1,29.87,NNW,340,11.0,16.0,6,0.00,,,0.00,Wunderground v.1.15,2013-05-03 19:58:00,
2013-05-03 13:03:00,90.8,10.5,29.87,NW,322,6.0,12.0,5,0.00,,,0.00,Wunderground v.1.15,2013-05-03 20:03:00,
2013-05-03 13:08:00,90.8,10.5,29.87,WSW,256,7.0,12.0,5,0.00,,,0.00,Wunderground v.1.15,2013-05-03 20:08:00,
2013-05-03 13:13:00,90.6,10.4,29.87,WNW,285,2.0,12.0,5,0.00,,,0.00,Wunderground v.1.15,2013-05-03 20:13:00,
2013-05-03 13:18:00,91.1,10.8,29.86,North,1,12.0,13.0,5,0.00,,,0.00,Wunderground v.1.15,2013-05-03 20:18:00,
2013-05-03 13:23:00,91.4,11.0,29.86,WNW,293,8.0,13.0,5,0.00,,,0.00,Wunderground v.1.15,2013-05-03 20:23:00,
2013-05-03 13:28:00,91.9,11.3,29.86,NE,39,2.0,18.0,5,0.00,,,0.00,Wunderground v.1.15,2013-05-03 20:28:00,
2013-05-03 13:33:00,92.1,11.5,29.85,WNW,284,8.0,11.0,5,0.00,,,0.00,Wunderground v.1.15,2013-05-03 20:33:00,
2013-05-03 13:38:00,92.1,11.5,29.85,North,351,9.0,13.0,5,0.00,,,0.00,Wunderground v.1.15,2013-05-03 20:38:00,
2013-05-03 13:43:00,92.0,11.4,29.85,NW,316,12.0,14.0,5,0.00,,,0.00,Wunderground v.1.15,2013-05-03 20:43:00,
2013-05-03 13:48:00,91.9,11.3,29.85,NW,326,10.0,15.0,5,0.00,,,0.00,Wunderground v.1.15,2013-05-03 20:48:00,
2013-05-03 13:53:00,91.8,11.2,29.84,West,274,10.0,12.0,5,0.00,,,0.00,Wunderground v.1.15,2013-05-03 20:53:00,
2013-05-03 13:58:00,92.2,6.5,29.84,NNW,335,10.0,15.0,4,0.00,,,0.00,Wunderground v.1.15,2013-05-03 20:58:00,
2013-05-03 14:03:00,92.0,6.4,29.83,NNW,329,8.0,9.0,4,0.00,,,0.00,Wunderground v.1.15,2013-05-03 21:03:00,
2013-05-03 14:09:00,92.5,11.7,29.83,WNW,300,7.0,15.0,5,0.00,,,0.00,Wunderground v.1.15,2013-05-03 21:09:00,
2013-05-03 14:14:00,92.3,6.6,29.83,WNW,285,12.0,16.0,4,0.00,,,0.00,Wunderground v.1.15,2013-05-03 21:14:00,
2013-05-03 14:19:00,92.0,11.4,29.82,WNW,285,11.0,16.0,5,0.00,,,0.00,Wunderground v.1.15,2013-05-03 21:19:00,
2013-05-03 14:24:00,92.1,11.5,29.82,NW,323,11.0,17.0,5,0.00,,,0.00,Wunderground v.1.15,2013-05-03 21:24:00,
2013-05-03 14:29:00,92.1,15.6,29.82,WNW,300,8.0,17.0,6,0.00,,,0.00,Wunderground v.1.15,2013-05-03 21:29:00,
2013-05-03 14:34:00,91.9,15.5,29.81,WNW,287,9.0,16.0,6,0.00,,,0.00,Wunderground v.1.15,2013-05-03 21:34:00,
2013-05-03 14:39:00,91.8,6.3,29.81,NNW,343,10.0,17.0,4,0.00,,,0.00,Wunderground v.1.15,2013-05-03 21:39:00,
2013-05-03 14:44:00,92.1,11.5,29.81,NW,316,3.0,13.0,5,0.00,,,0.00,Wunderground v.1.15,2013-05-03 21:44:00,
2013-05-03 14:49:00,92.1,11.5,29.80,WSW,249,13.0,15.0,5,0.00,,,0.00,Wunderground v.1.15,2013-05-03 21:49:00,
2013-05-03 14:54:00,91.7,11.2,29.80,WNW,297,11.0,16.0,5,0.00,,,0.00,Wunderground v.1.15,2013-05-03 21:54:00,
2013-05-03 14:59:00,91.6,15.2,29.80,West,276,9.0,16.0,6,0.00,,,0.00,Wunderground v.1.15,2013-05-03 21:59:00,
2013-05-03 15:04:00,92.0,15.5,29.79,WNW,293,7.0,12.0,6,0.00,,,0.00,Wunderground v.1.15,2013-05-03 22:04:00,
2013-05-03 15:09:00,92.4,11.7,29.79,NW,309,4.0,13.0,5,0.00,,,0.00,Wunderground v.1.15,2013-05-03 22:09:00,
2013-05-03 15:14:00,92.5,22.6,29.79,NW,305,9.0,12.0,8,0.00,,,0.00,Wunderground v.1.15,2013-05-03 22:14:00,
2013-05-03 15:19:00,93.1,7.2,29.79,NW,323,7.0,12.0,4,0.00,,,0.00,Wunderground v.1.15,2013-05-03 22:19:00,
2013-05-03 15:24:00,93.2,7.2,29.78,West,278,10.0,11.0,4,0.00,,,0.00,Wunderground v.1.15,2013-05-03 22:24:00,
2013-05-03 15:29:00,93.6,7.5,29.78,NW,323,6.0,12.0,4,0.00,,,0.00,Wunderground v.1.15,2013-05-03 22:29:00,
2013-05-03 15:34:00,93.5,7.4,29.78,West,271,7.0,12.0,4,0.00,,,0.00,Wunderground v.1.15,2013-05-03 22:34:00,
2013-05-03 15:39:00,93.6,16.7,29.78,NW,311,11.0,12.0,6,0.00,,,0.00,Wunderground v.1.15,2013-05-03 22:39:00,
2013-05-03 15:44:00,93.6,12.5,29.77,West,278,7.0,12.0,5,0.00,,,0.00,Wunderground v.1.15,2013-05-03 22:44:00,
2013-05-03 15:49:00,93.4,7.4,29.77,WNW,293,7.0,15.0,4,0.00,,,0.00,Wunderground v.1.15,2013-05-03 22:49:00,
2013-05-03 15:54:00,93.3,7.3,29.77,NW,311,9.0,11.0,4,0.00,,,0.00,Wunderground v.1.15,2013-05-03 22:54:00,
2013-05-03 15:59:00,93.3,7.3,29.77,West,269,3.0,11.0,4,0.00,,,0.00,Wunderground v.1.15,2013-05-03 22:59:00,
2013-05-03 16:04:00,93.2,7.2,29.77,WNW,290,6.0,12.0,4,0.00,,,0.00,Wunderground v.1.15,2013-05-03 23:04:00,
2013-05-03 16:09:00,93.3,7.3,29.76,West,274,9.0,12.0,4,0.00,,,0.00,Wunderground v.1.15,2013-05-03 23:09:00,
2013-05-03 16:14:00,93.3,7.3,29.76,WNW,300,10.0,12.0,4,0.00,,,0.00,Wunderground v.1.15,2013-05-03 23:14:00,
2013-05-03 16:19:00,93.3,7.3,29.76,West,276,7.0,12.0,4,0.00,,,0.00,Wunderground v.1.15,2013-05-03 23:19:00,
2013-05-03 16:24:00,93.1,7.2,29.76,WNW,294,7.0,9.0,4,0.00,,,0.00,Wunderground v.1.15,2013-05-03 23:24:00,
2013-05-03 16:29:00,93.4,12.4,29.76,NW,304,10.0,11.0,5,0.00,,,0.00,Wunderground v.1.15,2013-05-03 23:29:00,
2013-05-03 16:34:00,93.3,12.3,29.76,WSW,255,4.0,12.0,5,0.00,,,0.00,Wunderground v.1.15,2013-05-03 23:34:00,
2013-05-03 16:39:00,93.6,12.5,29.76,West,280,7.0,12.0,5,0.00,,,0.00,Wunderground v.1.15,2013-05-03 23:39:00,
2013-05-03 16:44:00,93.4,12.4,29.76,West,276,4.0,10.0,5,0.00,,,0.00,Wunderground v.1.15,2013-05-03 23:44:00,
2013-05-03 16:49:00,93.3,7.3,29.76,West,273,3.0,10.0,4,0.00,,,0.00,Wunderground v.1.15,2013-05-03 23:49:00,
2013-05-03 16:54:00,93.6,7.5,29.75,West,270,5.0,9.0,4,0.00,,,0.00,Wunderground v.1.15,2013-05-03 23:54:00,
2013-05-03 16:59:00,93.3,7.3,29.75,WNW,299,3.0,10.0,4,0.00,,,0.00,Wunderground v.1.15,2013-05-03 23:59:00,
2013-05-03 17:04:00,93.4,12.4,29.75,WNW,284,5.0,8.0,5,0.00,,,0.00,Wunderground v.1.15,2013-05-04 00:04:00,
2013-05-03 17:09:00,93.4,7.4,29.75,WNW,290,4.0,9.0,4,0.00,,,0.00,Wunderground v.1.15,2013-05-04 00:09:00,
2013-05-03 17:14:00,93.5,1.2,29.75,NW,319,6.0,8.0,3,0.00,,,0.00,Wunderground v.1.15,2013-05-04 00:14:00,
2013-05-03 17:19:00,93.3,7.3,29.75,NW,319,4.0,8.0,4,0.00,,,0.00,Wunderground v.1.15,2013-05-04 00:19:00,
2013-05-03 17:24:00,93.4,7.4,29.74,WNW,288,7.0,7.0,4,0.00,,,0.00,Wunderground v.1.15,2013-05-04 00:24:00,
2013-05-03 17:29:00,93.4,1.1,29.74,West,264,5.0,7.0,3,0.00,,,0.00,Wunderground v.1.15,2013-05-04 00:29:00,
2013-05-03 17:34:00,93.2,1.0,29.74,West,281,4.0,8.0,3,0.00,,,0.00,Wunderground v.1.15,2013-05-04 00:34:00,
2013-05-03 17:39:00,93.3,1.0,29.74,WNW,287,1.0,8.0,3,0.00,,,0.00,Wunderground v.1.15,2013-05-04 00:39:00,
2013-05-03 17:44:00,93.1,0.9,29.74,WNW,297,4.0,6.0,3,0.00,,,0.00,Wunderground v.1.15,2013-05-04 00:44:00,
2013-05-03 17:49:00,92.9,7.0,29.74,NW,321,3.0,7.0,4,0.00,,,0.00,Wunderground v.1.15,2013-05-04 00:49:00,
2013-05-03 17:54:00,93.0,0.8,29.74,West,281,4.0,6.0,3,0.00,,,0.00,Wunderground v.1.15,2013-05-04 00:54:00,
2013-05-03 17:59:00,93.1,0.9,29.73,WNW,291,5.0,6.0,3,0.00,,,0.00,Wunderground v.1.15,2013-05-04 00:59:00,
2013-05-03 18:04:00,93.0,0.8,29.73,WNW,287,3.0,4.0,3,0.00,,,0.00,Wunderground v.1.15,2013-05-04 01:04:00,
2013-05-03 18:09:00,93.2,1.0,29.73,NW,316,1.0,4.0,3,0.00,,,0.00,Wunderground v.1.15,2013-05-04 01:09:00,
2013-05-03 18:14:00,93.2,1.0,29.73,West,272,1.0,3.0,3,0.00,,,0.00,Wunderground v.1.15,2013-05-04 01:14:00,
2013-05-03 18:19:00,92.9,-7.7,29.73,NW,312,2.0,3.0,2,0.00,,,0.00,Wunderground v.1.15,2013-05-04 01:19:00,
2013-05-03 18:24:00,92.6,0.6,29.73,WSW,255,0.0,3.0,3,0.00,,,0.00,Wunderground v.1.15,2013-05-04 01:24:00,
2013-05-03 18:29:00,92.6,6.8,29.73,West,274,0.0,3.0,4,0.00,,,0.00,Wunderground v.1.15,2013-05-04 01:29:00,
2013-05-03 18:34:00,92.7,6.9,29.73,WNW,290,1.0,3.0,4,0.00,,,0.00,Wunderground v.1.15,2013-05-04 01:34:00,
2013-05-03 18:39:00,92.3,6.6,29.73,NW,308,1.0,3.0,4,0.00,,,0.00,Wunderground v.1.15,2013-05-04 01:39:00,
2013-05-03 18:44:00,91.7,6.2,29.73,NW,307,1.0,2.0,4,0.00,,,0.00,Wunderground v.1.15,2013-05-04 01:44:00,
2013-05-03 18:49:00,91.3,10.9,29.72,NW,316,0.0,2.0,5,0.00,,,0.00,Wunderground v.1.15,2013-05-04 01:49:00,
2013-05-03 18:54:00,91.0,10.7,29.72,NW,316,1.0,1.0,5,0.00,,,0.00,Wunderground v.1.15,2013-05-04 01:54:00,
2013-05-03 18:59:00,90.9,10.6,29.72,NW,304,0.0,1.0,5,0.00,,,0.00,Wunderground v.1.15,2013-05-04 01:59:00,
2013-05-03 19:04:00,90.5,14.5,29.72,NW,304,0.0,0.0,6,0.00,,,0.00,Wunderground v.1.15,2013-05-04 02:04:00,
2013-05-03 19:09:00,89.9,14.0,29.72,NW,305,0.0,0.0,6,0.00,,,0.00,Wunderground v.1.15,2013-05-04 02:09:00,
2013-05-03 19:14:00,88.9,16.9,29.72,WNW,302,0.0,0.0,7,0.00,,,0.00,Wunderground v.1.15,2013-05-04 02:14:00,
2013-05-03 19:19:00,87.8,16.0,29.72,WNW,303,0.0,0.0,7,0.00,,,0.00,Wunderground v.1.15,2013-05-04 02:19:00,
2013-05-03 19:24:00,87.0,15.5,29.72,NW,304,0.0,0.0,7,0.00,,,0.00,Wunderground v.1.15,2013-05-04 02:24:00,
2013-05-03 19:29:00,86.5,11.6,29.72,WNW,303,0.0,0.0,6,0.00,,,0.00,Wunderground v.1.15,2013-05-04 02:29:00,
2013-05-03 19:34:00,86.2,14.9,29.72,NNW,342,0.0,1.0,7,0.00,,,0.00,Wunderground v.1.15,2013-05-04 02:34:00,
2013-05-03 19:39:00,85.7,14.5,29.72,NNW,345,0.0,1.0,7,0.00,,,0.00,Wunderground v.1.15,2013-05-04 02:39:00,
2013-05-03 19:44:00,85.5,14.4,29.72,NNW,344,0.0,0.0,7,0.00,,,0.00,Wunderground v.1.15,2013-05-04 02:44:00,
2013-05-03 19:49:00,85.3,14.2,29.72,NNW,345,0.0,0.0,7,0.00,,,0.00,Wunderground v.1.15,2013-05-04 02:49:00,
2013-05-03 19:54:00,84.6,19.5,29.72,NNW,345,0.0,0.0,9,0.00,,,0.00,Wunderground v.1.15,2013-05-04 02:54:00,
2013-05-03 19:59:00,83.5,18.7,29.72,NNW,344,0.0,0.0,9,0.00,,,0.00,Wunderground v.1.15,2013-05-04 02:59:00,
2013-05-03 20:04:00,83.3,15.8,29.72,ENE,67,1.0,1.0,8,0.00,,,0.00,Wunderground v.1.15,2013-05-04 03:04:00,
2013-05-03 20:09:00,83.7,16.1,29.72,ENE,77,1.0,1.0,8,0.00,,,0.00,Wunderground v.1.15,2013-05-04 03:09:00,
2013-05-03 20:14:00,83.8,16.2,29.72,ENE,72,0.0,1.0,8,0.00,,,0.00,Wunderground v.1.15,2013-05-04 03:14:00,
2013-05-03 20:20:00,83.8,16.2,29.72,ESE,107,0.0,1.0,8,0.00,,,0.00,Wunderground v.1.15,2013-05-04 03:20:00,
2013-05-03 20:24:00,80.8,19.1,29.73,NW,307,1.0,5.0,10,0.00,,,0.00,Wunderground v.1.15,2013-05-04 03:24:00,
2013-05-03 20:29:00,79.8,24.6,29.73,North,8,1.0,5.0,13,0.00,,,0.00,Wunderground v.1.15,2013-05-04 03:29:00,
2013-05-03 20:35:00,78.8,27.2,29.72,ENE,75,1.0,1.0,15,0.00,,,0.00,Wunderground v.1.15,2013-05-04 03:35:00,
2013-05-03 20:40:00,78.8,23.8,29.72,East,94,1.0,2.0,13,0.00,,,0.00,Wunderground v.1.15,2013-05-04 03:40:00,
2013-05-03 20:45:00,79.5,20.3,29.72,ENE,74,1.0,2.0,11,0.00,,,0.00,Wunderground v.1.15,2013-05-04 03:45:00,
2013-05-03 20:50:00,80.5,18.9,29.72,ENE,63,2.0,3.0,10,0.00,,,0.00,Wunderground v.1.15,2013-05-04 03:50:00,
2013-05-03 20:55:00,80.8,16.7,29.73,ESE,121,1.0,3.0,9,0.00,,,0.00,Wunderground v.1.15,2013-05-04 03:55:00,
2013-05-03 21:00:00,80.4,16.4,29.73,SE,134,0.0,3.0,9,0.00,,,0.00,Wunderground v.1.15,2013-05-04 04:00:00,
2013-05-03 21:01:00,80.3,16.3,29.73,SE,134,0.0,1.0,9,0.00,,,0.00,Wunderground v.1.15,2013-05-04 04:01:00,
2013-05-03 21:06:00,79.4,15.6,29.73,SE,134,0.0,1.0,9,0.00,,,0.00,Wunderground v.1.15,2013-05-04 04:06:00,
2013-05-03 21:11:00,78.9,12.5,29.73,SE,128,0.0,0.0,8,0.00,,,0.00,Wunderground v.1.15,2013-05-04 04:11:00,
2013-05-03 21:16:00,78.7,15.1,29.73,SE,128,0.0,0.0,9,0.00,,,0.00,Wunderground v.1.15,2013-05-04 04:16:00,
2013-05-03 21:21:00,78.0,14.5,29.73,SE,129,0.0,0.0,9,0.00,,,0.00,Wunderground v.1.15,2013-05-04 04:21:00,
2013-05-03 21:26:00,77.7,14.3,29.73,SE,128,0.0,0.0,9,0.00,,,0.00,Wunderground v.1.15,2013-05-04 04:26:00,
2013-05-03 21:31:00,77.6,14.2,29.73,SE,128,0.0,0.0,9,0.00,,,0.00,Wunderground v.1.15,2013-05-04 04:31:00,
2013-05-03 21:36:00,77.0,16.2,29.73,SE,128,0.0,0.0,10,0.00,,,0.00,Wunderground v.1.15,2013-05-04 04:36:00,
2013-05-03 21:41:00,76.1,19.8,29.73,SE,129,0.0,0.0,12,0.00,,,0.00,Wunderground v.1.15,2013-05-04 04:41:00,
2013-05-03 21:46:00,75.1,14.8,29.73,ESE,108,0.0,1.0,10,0.00,,,0.00,Wunderground v.1.15,2013-05-04 04:46:00,
2013-05-03 21:51:00,75.7,15.2,29.73,ESE,110,0.0,0.0,10,0.00,,,0.00,Wunderground v.1.15,2013-05-04 04:51:00,
2013-05-03 21:56:00,75.7,17.4,29.73,ESE,110,0.0,0.0,11,0.00,,,0.00,Wunderground v.1.15,2013-05-04 04:56:00,
2013-05-03 22:01:00,75.6,15.1,29.73,ESE,116,1.0,1.0,10,0.00,,,0.00,Wunderground v.1.15,2013-05-04 05:01:00,
2013-05-03 22:06:00,76.0,13.0,29.73,SE,126,1.0,2.0,9,0.00,,,0.00,Wunderground v.1.15,2013-05-04 05:06:00,
2013-05-03 22:11:00,76.1,15.5,29.73,SE,127,1.0,2.0,10,0.00,,,0.00,Wunderground v.1.15,2013-05-04 05:11:00,
2013-05-03 22:16:00,76.0,15.4,29.73,ESE,123,1.0,2.0,10,0.00,,,0.00,Wunderground v.1.15,2013-05-04 05:16:00,
2013-05-03 22:21:00,76.1,13.1,29.73,ESE,117,2.0,2.0,9,0.00,,,0.00,Wunderground v.1.15,2013-05-04 05:21:00,
2013-05-03 22:26:00,76.3,13.3,29.73,ESE,110,2.0,3.0,9,0.00,,,0.00,Wunderground v.1.15,2013-05-04 05:26:00,
2013-05-03 22:31:00,76.2,13.2,29.73,ESE,113,3.0,3.0,9,0.00,,,0.00,Wunderground v.1.15,2013-05-04 05:31:00,
2013-05-03 22:36:00,76.1,13.1,29.72,ESE,117,2.0,4.0,9,0.00,,,0.00,Wunderground v.1.15,2013-05-04 05:36:00,
2013-05-03 22:41:00,75.7,12.8,29.72,SE,128,2.0,3.0,9,0.00,,,0.00,Wunderground v.1.15,2013-05-04 05:41:00,
2013-05-03 22:46:00,75.6,12.7,29.72,ESE,115,0.0,3.0,9,0.00,,,0.00,Wunderground v.1.15,2013-05-04 05:46:00,
2013-05-03 22:51:00,75.2,12.4,29.72,East,101,0.0,1.0,9,0.00,,,0.00,Wunderground v.1.15,2013-05-04 05:51:00,
2013-05-03 22:56:00,74.6,12.0,29.72,ESE,118,1.0,1.0,9,0.00,,,0.00,Wunderground v.1.15,2013-05-04 05:56:00,
2013-05-03 23:01:00,74.2,11.7,29.72,SE,125,2.0,3.0,9,0.00,,,0.00,Wunderground v.1.15,2013-05-04 06:01:00,
2013-05-03 23:06:00,74.4,11.8,29.72,ESE,121,2.0,3.0,9,0.00,,,0.00,Wunderground v.1.15,2013-05-04 06:06:00,
2013-05-03 23:11:00,73.2,13.3,29.72,NNW,333,1.0,3.0,10,0.00,,,0.00,Wunderground v.1.15,2013-05-04 06:11:00,
2013-05-03 23:16:00,70.9,15.7,29.72,NNW,343,1.0,3.0,12,0.00,,,0.00,Wunderground v.1.15,2013-05-04 06:16:00,
2013-05-03 23:21:00,70.5,17.2,29.72,NNW,342,0.0,1.0,13,0.00,,,0.00,Wunderground v.1.15,2013-05-04 06:21:00,
2013-05-03 23:26:00,70.1,16.9,29.72,SW,232,1.0,2.0,13,0.00,,,0.00,Wunderground v.1.15,2013-05-04 06:26:00,
2013-05-03 23:31:00,69.6,27.9,29.72,SSE,159,0.0,1.0,21,0.00,,,0.00,Wunderground v.1.15,2013-05-04 06:31:00,
2013-05-03 23:36:00,69.5,30.0,29.72,SE,143,0.0,3.0,23,0.00,,,0.00,Wunderground v.1.15,2013-05-04 06:36:00,
2013-05-03 23:41:00,69.2,31.9,29.72,South,172,0.0,0.0,25,0.00,,,0.00,Wunderground v.1.15,2013-05-04 06:41:00,
2013-05-03 23:46:00,68.7,32.4,29.72,South,172,0.0,0.0,26,0.00,,,0.00,Wunderground v.1.15,2013-05-04 06:46:00,
2013-05-03 23:51:00,68.4,32.1,29.72,South,172,0.0,0.0,26,0.00,,,0.00,Wunderground v.1.15,2013-05-04 06:51:00,
2013-05-03 23:56:00,68.2,27.9,29.72,South,172,0.0,0.0,22,0.00,,,0.00,Wunderground v.1.15,2013-05-04 06:56:00,